Aquilla, Alabama
Current Conditions -  °F | °C
As of 8:58 AM on Sunday 21 Dec 2014 (Local Time) from KMEI Reporting Station
Overcast Overcast  
Wind Chill: 39°   Ceiling: 600
Heat Index: 43°   Visibility: 9mi
Dew Point: 40°   Wind: 6mph
Humidity: 89%   Direction: 40°NE
Pressure: 30.16"   Gusts: NA
Location:  31.6272°N, 88.354°W
Report Text: KMEI 211458Z 04005KT 9SM OVC006 06/04 A3016 RMK AO2 SLP215 T00610044 53001
Loading
Personal Weather Stations






























Interactive Weather Map New forecast layout! Learn more

10-Day Weather Forecast

Advertisements
Track Severe Weather on mobile